createdAt,value
2018-01-16T00:01:17.121Z,98957.48
2018-01-16T00:03:47.538Z,98956.31
2018-01-16T00:06:18.259Z,98958.08
2018-01-16T00:08:48.726Z,98960.38
2018-01-16T00:11:19.010Z,98967.44
2018-01-16T00:13:49.428Z,98973.00
2018-01-16T00:16:19.634Z,98973.99
2018-01-16T00:18:51.364Z,98985.70
2018-01-16T00:21:21.759Z,98985.13
2018-01-16T00:23:52.640Z,98996.25
2018-01-16T00:26:23.699Z,98981.33
2018-01-16T00:28:55.101Z,98992.69
2018-01-16T00:31:25.695Z,98976.93
2018-01-16T00:33:56.508Z,98993.59
2018-01-16T00:36:27.302Z,99006.12
2018-01-16T00:38:58.173Z,99000.83
2018-01-16T00:41:28.531Z,99000.91
2018-01-16T00:43:58.759Z,99007.27
2018-01-16T00:46:29.782Z,98983.41
2018-01-16T00:49:01.100Z,98981.59
2018-01-16T00:51:31.362Z,98982.81
2018-01-16T00:54:01.992Z,98994.52
2018-01-16T00:56:32.361Z,98995.19
2018-01-16T00:59:03.497Z,98994.91
2018-01-16T01:01:34.833Z,98998.00
2018-01-16T01:04:06.834Z,98994.91
2018-01-16T01:06:37.582Z,99014.39
2018-01-16T01:09:08.301Z,99008.92
2018-01-16T01:11:38.859Z,99012.57
2018-01-16T01:14:09.242Z,99000.23
2018-01-16T01:16:39.862Z,99010.59
2018-01-16T01:19:10.634Z,99003.37
2018-01-16T01:21:41.575Z,99002.65
2018-01-16T01:24:12.459Z,98993.94
2018-01-16T01:26:43.100Z,98997.00
2018-01-16T01:29:13.651Z,98991.02
2018-01-16T01:31:44.460Z,98993.52
2018-01-16T01:34:14.778Z,98986.96
2018-01-16T01:36:45.069Z,98960.43
2018-01-16T01:39:15.321Z,98946.67
2018-01-16T01:41:46.726Z,98954.16
2018-01-16T01:44:17.521Z,98954.47
2018-01-16T01:46:49.178Z,98944.63
2018-01-16T01:49:19.687Z,98935.34
2018-01-16T01:51:50.062Z,98933.84
2018-01-16T01:54:20.791Z,98944.13
2018-01-16T01:56:51.178Z,98932.52
2018-01-16T01:59:21.500Z,98939.39
2018-01-16T02:01:55.569Z,98945.12
2018-01-16T02:04:26.768Z,98936.76
2018-01-16T02:06:57.125Z,98940.47
2018-01-16T02:09:27.400Z,98940.48
2018-01-16T02:11:58.654Z,98941.80
2018-01-16T02:14:29.193Z,98932.92
2018-01-16T02:16:59.729Z,98924.46
2018-01-16T02:19:30.772Z,98926.78
2018-01-16T02:22:01.883Z,98913.74
2018-01-16T02:24:32.357Z,98902.34
2018-01-16T02:27:02.851Z,98903.16
2018-01-16T02:29:34.248Z,98909.79
2018-01-16T02:32:05.262Z,98909.19
2018-01-16T02:34:35.721Z,98902.48
2018-01-16T02:37:05.955Z,98915.58
2018-01-16T02:39:36.271Z,98903.08
2018-01-16T02:42:06.895Z,98904.71
2018-01-16T02:44:37.389Z,98895.92
2018-01-16T02:47:08.294Z,98896.75
2018-01-16T02:49:39.838Z,98893.14
2018-01-16T02:52:10.122Z,98901.80
2018-01-16T02:54:40.501Z,98895.59
2018-01-16T02:57:10.629Z,98903.81
2018-01-16T02:59:41.005Z,98905.46
2018-01-16T03:02:12.144Z,98898.83
2018-01-16T03:04:43.204Z,98896.89
2018-01-16T03:07:13.674Z,98882.70
2018-01-16T03:09:44.407Z,98882.17
2018-01-16T03:12:15.021Z,98868.36
2018-01-16T03:14:45.431Z,98878.28
2018-01-16T03:17:16.646Z,98884.93
2018-01-16T03:19:47.018Z,98879.56
2018-01-16T03:22:18.008Z,98888.06
2018-01-16T03:24:48.783Z,98866.00
2018-01-16T03:27:19.258Z,98864.28
2018-01-16T03:29:49.571Z,98861.85
2018-01-16T03:32:20.045Z,98855.90
2018-01-16T03:34:51.633Z,98859.73
2018-01-16T03:37:21.999Z,98852.99
2018-01-16T03:39:53.298Z,98870.63
2018-01-16T03:42:24.453Z,98865.22
2018-01-16T03:44:54.606Z,98867.84
2018-01-16T03:47:25.135Z,98861.17
2018-01-16T03:49:55.861Z,98848.63
2018-01-16T03:52:25.934Z,98839.38
2018-01-16T03:54:56.383Z,98839.52
2018-01-16T03:57:26.552Z,98840.70
2018-01-16T03:59:56.963Z,98827.78
2018-01-16T04:02:27.822Z,98810.97
2018-01-16T04:04:57.998Z,98813.00
2018-01-16T04:07:28.436Z,98824.20
2018-01-16T04:10:01.659Z,98824.86
2018-01-16T04:12:32.519Z,98820.56
2018-01-16T04:15:06.620Z,98805.36
2018-01-16T04:17:38.741Z,98803.84
2018-01-16T04:20:09.287Z,98806.36
2018-01-16T04:22:40.118Z,98829.16
2018-01-16T04:25:10.668Z,98797.45
2018-01-16T04:27:40.791Z,98798.50
2018-01-16T04:30:14.072Z,98798.50
2018-01-16T04:32:44.451Z,98786.17
2018-01-16T04:35:14.934Z,98790.31
2018-01-16T04:37:45.143Z,98788.21
2018-01-16T04:40:15.421Z,98783.59
2018-01-16T04:42:46.082Z,98779.58
2018-01-16T04:45:17.201Z,98776.53
2018-01-16T04:47:48.100Z,98770.58
2018-01-16T04:50:18.704Z,98774.45
2018-01-16T04:52:49.008Z,98767.30
2018-01-16T04:55:19.383Z,98758.78
2018-01-16T04:57:49.562Z,98760.72
2018-01-16T05:00:20.049Z,98757.21
2018-01-16T05:02:50.594Z,98765.44
2018-01-16T05:05:20.821Z,98765.67
2018-01-16T05:07:53.669Z,98772.92
2018-01-16T05:10:25.087Z,98771.98
2018-01-16T05:12:55.449Z,98766.13
2018-01-16T05:15:25.909Z,98759.88
2018-01-16T05:17:56.290Z,98770.14
2018-01-16T05:20:26.685Z,98770.00
2018-01-16T05:22:57.368Z,98765.06
2018-01-16T05:25:28.296Z,98763.73
2018-01-16T05:27:58.588Z,98775.39
2018-01-16T05:30:29.434Z,98764.11
2018-01-16T05:33:13.857Z,98765.23
2018-01-16T05:35:44.509Z,98758.39
2018-01-16T05:38:14.798Z,98766.48
2018-01-16T05:40:44.977Z,98759.89
2018-01-16T05:43:15.537Z,98764.36
2018-01-16T05:45:46.540Z,98758.97
2018-01-16T05:48:17.702Z,98760.94
2018-01-16T05:50:48.398Z,98760.28
2018-01-16T05:53:19.388Z,98759.73
2018-01-16T05:55:49.708Z,98755.91
2018-01-16T05:58:20.137Z,98760.34
2018-01-16T06:00:50.713Z,98756.22
2018-01-16T06:03:22.325Z,98755.55
2018-01-16T06:05:52.843Z,98760.06
2018-01-16T06:08:23.617Z,98758.04
2018-01-16T06:10:55.405Z,98755.80
2018-01-16T06:13:25.876Z,98768.05
2018-01-16T06:15:57.130Z,98771.40
2018-01-16T06:18:27.536Z,98768.01
2018-01-16T06:20:58.447Z,98766.25
2018-01-16T06:23:34.572Z,98772.39
2018-01-16T06:26:10.911Z,98767.91
2018-01-16T06:28:42.479Z,98770.38
2018-01-16T06:31:13.274Z,98759.75
2018-01-16T06:33:46.748Z,98763.02
2018-01-16T06:36:17.411Z,98763.48
2018-01-16T06:38:48.083Z,98758.42
2018-01-16T06:41:18.313Z,98753.83
2018-01-16T06:43:50.062Z,98739.73
2018-01-16T06:46:20.618Z,98750.98
2018-01-16T06:48:50.832Z,98750.47
2018-01-16T06:51:22.159Z,98751.24
2018-01-16T06:53:53.343Z,98734.66
2018-01-16T06:56:26.454Z,98733.05
2018-01-16T06:58:57.330Z,98746.62
2018-01-16T07:01:28.105Z,98759.89
2018-01-16T07:03:59.022Z,98750.60
2018-01-16T07:06:29.793Z,98749.36
2018-01-16T07:09:01.242Z,98736.17
2018-01-16T07:11:32.895Z,98748.45
2018-01-16T07:14:08.564Z,98740.30
2018-01-16T07:16:39.208Z,98737.72
2018-01-16T07:19:09.961Z,98734.19
2018-01-16T07:21:53.030Z,98719.18
2018-01-16T07:24:23.831Z,98721.06
2018-01-16T07:26:54.327Z,98725.67
2018-01-16T07:29:24.723Z,98724.62
2018-01-16T07:31:55.732Z,98728.69
2018-01-16T07:34:26.010Z,98727.44
2018-01-16T07:36:57.469Z,98731.86
2018-01-16T07:39:28.227Z,98733.41
2018-01-16T07:41:59.387Z,98742.73
2018-01-16T07:44:29.670Z,98725.02
2018-01-16T07:47:08.095Z,98752.79
2018-01-16T07:49:39.195Z,98741.18
2018-01-16T07:52:10.328Z,98755.58
2018-01-16T07:54:41.775Z,98767.63
2018-01-16T07:57:12.667Z,98744.88
2018-01-16T07:59:43.362Z,98761.66
2018-01-16T08:02:15.912Z,98758.48
2018-01-16T08:04:46.386Z,98750.32
2018-01-16T08:07:16.622Z,98754.86
2018-01-16T08:09:46.940Z,98751.20
2018-01-16T08:12:18.032Z,98747.70
2018-01-16T08:14:48.894Z,98749.27
2018-01-16T08:17:19.538Z,98749.94
2018-01-16T08:19:50.558Z,98749.80
2018-01-16T08:22:21.040Z,98743.66
2018-01-16T08:24:52.671Z,98748.09
2018-01-16T08:27:24.167Z,98749.02
2018-01-16T08:29:55.121Z,98742.16
2018-01-16T08:32:27.081Z,98725.72
2018-01-16T08:34:59.511Z,98737.50
2018-01-16T08:37:30.178Z,98738.63
2018-01-16T08:40:01.266Z,98727.61
2018-01-16T08:42:31.823Z,98704.31
2018-01-16T08:45:12.966Z,98753.23
2018-01-16T08:47:47.834Z,98758.28
2018-01-16T08:50:18.175Z,98757.70
2018-01-16T08:52:50.745Z,98754.08
2018-01-16T08:55:23.251Z,98758.81
2018-01-16T08:57:57.446Z,98765.91
2018-01-16T09:00:31.293Z,98749.95
2018-01-16T09:03:02.751Z,98763.72
2018-01-16T09:05:33.688Z,98759.63
2018-01-16T09:08:07.749Z,98757.20
2018-01-16T09:10:38.180Z,98755.21
2018-01-16T09:13:09.213Z,98738.44
2018-01-16T09:15:40.553Z,98756.61
2018-01-16T09:18:11.071Z,98757.78
2018-01-16T09:20:42.816Z,98758.70
2018-01-16T09:23:16.700Z,98762.34
2018-01-16T09:25:47.572Z,98748.48
2018-01-16T09:28:18.692Z,98766.87
2018-01-16T09:30:49.230Z,98750.09
2018-01-16T09:33:20.032Z,98752.67
2018-01-16T09:35:51.173Z,98768.33
2018-01-16T09:38:21.666Z,98804.11
2018-01-16T09:40:52.140Z,98832.83
2018-01-16T09:43:29.849Z,98830.71
2018-01-16T09:46:02.110Z,98820.81
2018-01-16T09:48:32.810Z,98821.66
2018-01-16T09:51:12.253Z,98826.19
2018-01-16T09:53:43.930Z,98810.20
2018-01-16T09:56:16.850Z,98836.54
2018-01-16T09:58:48.992Z,98857.87
2018-01-16T10:01:20.110Z,98854.44
2018-01-16T10:03:51.243Z,98852.63
2018-01-16T10:06:21.581Z,98885.09
2018-01-16T10:08:53.457Z,98888.24
2018-01-16T10:11:24.811Z,98906.38
2018-01-16T10:13:59.766Z,98911.31
2018-01-16T10:16:30.666Z,98899.67
2018-01-16T10:19:01.056Z,98914.65
2018-01-16T10:21:32.117Z,98929.98
2018-01-16T10:24:03.438Z,98932.84
2018-01-16T10:26:34.193Z,98943.98
2018-01-16T10:29:04.995Z,98934.11
2018-01-16T10:31:37.067Z,98900.02
2018-01-16T10:34:08.050Z,98915.38
2018-01-16T10:36:39.418Z,98921.80
2018-01-16T10:39:10.892Z,98925.48
2018-01-16T10:41:44.602Z,98926.68
2018-01-16T10:44:16.442Z,98923.84
2018-01-16T10:46:46.924Z,98924.23
2018-01-16T10:49:22.344Z,98913.04
2018-01-16T10:51:54.781Z,98938.85
2018-01-16T10:54:30.082Z,98944.20
2018-01-16T10:57:01.397Z,98940.42
2018-01-16T10:59:36.348Z,98943.88
2018-01-16T11:02:08.405Z,98946.71
2018-01-16T11:04:38.966Z,98981.52
2018-01-16T11:07:09.747Z,98978.73
2018-01-16T11:09:40.799Z,98989.29
2018-01-16T11:12:12.078Z,99002.85
2018-01-16T11:14:42.473Z,99012.09
2018-01-16T11:17:14.376Z,99009.20
2018-01-16T11:19:46.479Z,99006.64
2018-01-16T11:22:20.885Z,98997.01
2018-01-16T11:32:13.932Z,99002.84
2018-01-16T11:34:44.575Z,99000.73
2018-01-16T11:37:17.258Z,98984.27
2018-01-16T11:39:48.930Z,98994.53
2018-01-16T11:42:19.399Z,98996.62
2018-01-16T11:44:49.814Z,98999.70
2018-01-16T11:47:20.657Z,98995.79
2018-01-16T11:49:51.926Z,99004.30
2018-01-16T11:52:22.489Z,98997.47
2018-01-16T11:54:52.882Z,98997.55
2018-01-16T11:57:28.062Z,98993.30
2018-01-16T12:00:00.149Z,99001.25
2018-01-16T12:02:32.919Z,99000.94
2018-01-16T12:05:04.608Z,99018.70
2018-01-16T12:07:35.930Z,99020.61
2018-01-16T12:10:08.795Z,99013.24
2018-01-16T12:12:43.760Z,99019.63
2018-01-16T12:15:16.748Z,99005.61
2018-01-16T12:17:51.052Z,99012.31
2018-01-16T12:20:24.467Z,99012.77
2018-01-16T12:22:56.905Z,99004.55
2018-01-16T12:25:27.487Z,99014.51
2018-01-16T12:27:58.892Z,99003.46
2018-01-16T12:30:31.049Z,98992.84
2018-01-16T12:33:02.658Z,99006.12
2018-01-16T12:35:33.606Z,99010.50
2018-01-16T12:38:04.090Z,99005.25
2018-01-16T12:40:34.675Z,99010.73
2018-01-16T12:43:06.072Z,99002.48
2018-01-16T12:45:37.488Z,98990.69
2018-01-16T12:48:08.854Z,98998.19
2018-01-16T12:50:39.844Z,98996.59
2018-01-16T12:53:11.165Z,98999.75
2018-01-16T12:55:41.880Z,99000.33
2018-01-16T12:58:13.741Z,98988.95
2018-01-16T13:00:44.112Z,98977.92
2018-01-16T13:03:14.752Z,98975.63
2018-01-16T13:05:46.051Z,98981.81
2018-01-16T13:08:17.241Z,98984.02
2018-01-16T13:10:48.195Z,98975.45
2018-01-16T13:13:19.641Z,98980.44
2018-01-16T13:15:55.680Z,98990.37
2018-01-16T13:18:39.553Z,98997.05
2018-01-16T13:21:11.777Z,99026.27
2018-01-16T13:23:43.399Z,98999.20
2018-01-16T13:26:14.932Z,98991.94
2018-01-16T13:28:47.228Z,99007.19
2018-01-16T13:31:18.266Z,98993.67
2018-01-16T13:33:49.055Z,98996.59
2018-01-16T13:36:20.578Z,98985.38
2018-01-16T13:38:51.925Z,99000.76
2018-01-16T13:41:26.250Z,99000.88
2018-01-16T13:43:57.379Z,98992.63
2018-01-16T13:46:30.306Z,98985.04
2018-01-16T13:52:05.528Z,98989.82
2018-01-16T13:54:36.816Z,99004.58
2018-01-16T13:57:09.242Z,98975.30
2018-01-16T13:59:41.297Z,99004.36
2018-01-16T14:02:12.074Z,99008.90
2018-01-16T14:04:43.456Z,99012.81
2018-01-16T14:07:16.119Z,99022.31
2018-01-16T14:09:48.146Z,99034.39
2018-01-16T14:12:38.529Z,99036.60
2018-01-16T14:15:19.005Z,99033.09
2018-01-16T14:17:54.290Z,99038.30
2018-01-16T14:20:25.733Z,99034.20
2018-01-16T14:22:59.016Z,99027.00
2018-01-16T14:25:31.409Z,99024.69
2018-01-16T14:28:03.398Z,99020.13
2018-01-16T14:30:36.259Z,99023.66
2018-01-16T14:33:08.498Z,99007.63
2018-01-16T14:35:41.564Z,99041.56
2018-01-16T14:38:13.456Z,99070.45
2018-01-16T14:40:45.320Z,99040.56
2018-01-16T14:43:18.025Z,99051.23
2018-01-16T14:45:53.807Z,99051.16
2018-01-16T14:48:26.571Z,99040.34
2018-01-16T14:51:01.139Z,99070.25
2018-01-16T14:53:34.243Z,99047.97
2018-01-16T14:56:05.410Z,99039.48
2018-01-16T14:58:36.168Z,99040.09
2018-01-16T15:01:08.356Z,99029.25
2018-01-16T15:03:39.362Z,99032.29
2018-01-16T15:06:12.302Z,99014.07
2018-01-16T15:08:44.391Z,99030.91
2018-01-16T15:11:15.452Z,99035.06
2018-01-16T15:13:54.382Z,99040.45
2018-01-16T15:16:29.195Z,99042.02
2018-01-16T15:19:07.076Z,99038.16
2018-01-16T15:21:42.223Z,99054.03
2018-01-16T15:24:16.614Z,99050.22
2018-01-16T15:26:52.343Z,99059.98
2018-01-16T15:29:32.412Z,99068.23
2018-01-16T15:32:08.614Z,99065.91
2018-01-16T15:34:44.092Z,99051.30
2018-01-16T15:37:19.327Z,99080.38
2018-01-16T15:39:57.589Z,99072.55
2018-01-16T15:42:32.750Z,99088.80
2018-01-16T15:45:39.651Z,99088.35
2018-01-16T15:48:15.316Z,99089.34
2018-01-16T15:50:49.775Z,99093.68
2018-01-16T15:53:38.200Z,99099.70
2018-01-16T15:56:12.910Z,99097.73
2018-01-16T15:58:47.756Z,99091.48
2018-01-16T16:01:20.825Z,99088.38
2018-01-16T16:03:54.377Z,99078.19
2018-01-16T16:06:28.974Z,99107.20
2018-01-16T16:09:17.835Z,99101.55
2018-01-16T16:14:37.330Z,99094.11
2018-01-16T16:17:19.430Z,99089.84
2018-01-16T16:19:51.916Z,99070.56
2018-01-16T16:22:26.065Z,99081.93
2018-01-16T16:24:59.337Z,99085.83
2018-01-16T16:28:51.887Z,99088.51
2018-01-16T16:31:25.360Z,99123.59
2018-01-16T16:34:00.289Z,99171.21
2018-01-16T16:36:40.788Z,99136.88
2018-01-16T16:39:14.667Z,99127.72
2018-01-16T16:41:49.489Z,99124.29
2018-01-16T16:44:28.925Z,99109.91
2018-01-16T16:47:04.481Z,99107.55
2018-01-16T16:49:44.858Z,99073.41
2018-01-16T16:52:17.407Z,99081.45
2018-01-16T16:55:03.657Z,99080.84
2018-01-16T16:57:42.173Z,99084.20
2018-01-16T17:00:27.238Z,99076.70
2018-01-16T17:03:03.345Z,99083.50
2018-01-16T17:05:38.850Z,99096.39
2018-01-16T17:08:11.910Z,99091.32
2018-01-16T17:10:47.850Z,99098.20
2018-01-16T17:13:21.102Z,99092.84
2018-01-16T17:15:54.386Z,99102.80
2018-01-16T17:18:40.217Z,99102.84
2018-01-16T17:21:14.847Z,99097.49
2018-01-16T17:23:49.979Z,99088.25
2018-01-16T17:26:31.089Z,99072.21
2018-01-16T17:29:06.812Z,99073.88
2018-01-16T17:31:52.669Z,99071.91
2018-01-16T17:34:29.709Z,99077.50
2018-01-16T17:37:05.274Z,99056.06
2018-01-16T17:39:42.658Z,99061.63
2018-01-16T17:42:18.886Z,99065.25
2018-01-16T17:44:53.710Z,99056.77
2018-01-16T17:47:39.617Z,99061.39
2018-01-16T17:50:13.155Z,99060.66
2018-01-16T17:52:45.463Z,99065.63
2018-01-16T17:55:20.185Z,99060.17
2018-01-16T17:57:58.464Z,99056.41
2018-01-16T18:00:39.030Z,99058.60
2018-01-16T18:03:17.328Z,99048.94
2018-01-16T18:05:52.283Z,99049.08
2018-01-16T18:08:25.503Z,99048.63
2018-01-16T18:10:57.769Z,99049.38
2018-01-16T18:13:34.810Z,99047.02
2018-01-16T18:16:09.185Z,99049.95
2018-01-16T18:18:41.146Z,99048.06
2018-01-16T18:21:17.159Z,99057.45
2018-01-16T18:23:51.062Z,99060.13
2018-01-16T18:26:25.826Z,99070.87
2018-01-16T18:31:42.542Z,99060.97
2018-01-16T18:37:04.782Z,99058.47
2018-01-16T18:39:36.918Z,99050.25
2018-01-16T18:42:09.844Z,99051.16
2018-01-16T18:44:44.015Z,99047.23
2018-01-16T18:47:16.863Z,99045.16
2018-01-16T18:49:48.267Z,99044.08
2018-01-16T18:52:22.975Z,99044.66
2018-01-16T18:54:54.506Z,99037.61
2018-01-16T18:57:28.500Z,99038.30
2018-01-16T19:00:18.793Z,99046.16
2018-01-16T19:02:53.424Z,99039.13
2018-01-16T19:05:25.105Z,99041.75
2018-01-16T19:07:56.003Z,99027.88
2018-01-16T19:10:38.578Z,99042.58
2018-01-16T19:13:10.329Z,99044.01
2018-01-16T19:15:41.604Z,99041.33
2018-01-16T19:18:12.714Z,99043.48
2018-01-16T19:20:44.549Z,99053.46
2018-01-16T19:23:15.855Z,99048.34
2018-01-16T19:25:49.499Z,99041.89
2018-01-16T19:28:23.284Z,99037.20
2018-01-16T19:30:59.609Z,99039.45
2018-01-16T19:33:32.488Z,99031.58
2018-01-16T19:36:15.437Z,99028.84
2018-01-16T19:38:51.252Z,99032.94
2018-01-16T19:41:23.576Z,99040.85
2018-01-16T19:43:56.068Z,99048.61
2018-01-16T19:46:30.250Z,99034.70
2018-01-16T19:49:02.792Z,99039.52
2018-01-16T19:51:34.300Z,99029.17
2018-01-16T19:54:08.161Z,99032.92
2018-01-16T19:59:18.031Z,99028.05
2018-01-16T20:01:49.930Z,99029.03
2018-01-16T20:04:21.411Z,99025.26
2018-01-16T20:06:52.749Z,99020.09
2018-01-16T20:09:23.917Z,99023.55
2018-01-16T20:11:56.844Z,99018.37
2018-01-16T20:14:29.558Z,99009.34
2018-01-16T20:17:00.835Z,99030.06
2018-01-16T20:19:33.043Z,99029.48
2018-01-16T20:22:04.953Z,99015.17
2018-01-16T20:24:37.066Z,99007.08
2018-01-16T20:27:10.022Z,99009.14
2018-01-16T20:29:46.359Z,99011.47
2018-01-16T20:32:19.163Z,99011.72
2018-01-16T20:34:50.432Z,99011.25
2018-01-16T20:37:22.854Z,99002.41
2018-01-16T20:39:53.955Z,99001.91
2018-01-16T20:42:24.932Z,99013.28
2018-01-16T20:44:56.065Z,99015.61
2018-01-16T20:47:41.883Z,99021.48
2018-01-16T20:50:14.033Z,99013.21
2018-01-16T20:52:49.084Z,99009.87
2018-01-16T20:55:23.556Z,99005.08
2018-01-16T20:57:56.840Z,99012.61
2018-01-16T21:00:28.395Z,98998.12
2018-01-16T21:03:00.031Z,98988.81
2018-01-16T21:05:30.627Z,98997.28
2018-01-16T21:08:02.584Z,98990.45
2018-01-16T21:10:35.314Z,98991.44
2018-01-16T21:13:06.800Z,98984.59
2018-01-16T21:15:50.358Z,98981.93
2018-01-16T21:18:22.608Z,98969.77
2018-01-16T21:20:53.359Z,98991.24
2018-01-16T21:23:55.357Z,98982.45
2018-01-16T21:26:29.191Z,98978.63
2018-01-16T21:28:59.806Z,98978.56
2018-01-16T21:31:30.937Z,98977.06
2018-01-16T21:34:03.041Z,98975.64
2018-01-16T21:36:34.207Z,98971.55
2018-01-16T21:39:05.188Z,98973.25
2018-01-16T21:41:37.437Z,98974.39
2018-01-16T21:44:11.087Z,98974.73
2018-01-16T21:46:41.622Z,98974.50
2018-01-16T21:49:12.330Z,98974.22
2018-01-16T21:51:43.044Z,98972.00
2018-01-16T21:54:14.822Z,98967.34
2018-01-16T21:56:45.520Z,98960.73
2018-01-16T21:59:15.900Z,98956.47
2018-01-16T22:01:46.711Z,98959.91
2018-01-16T22:04:21.410Z,98960.98
2018-01-16T22:06:52.357Z,98968.34
2018-01-16T22:09:23.032Z,98959.83
2018-01-16T22:11:53.549Z,98962.22
2018-01-16T22:14:24.167Z,98961.21
2018-01-16T22:16:55.941Z,98957.63
2018-01-16T22:19:26.491Z,98952.19
2018-01-16T22:21:56.713Z,98948.47
2018-01-16T22:24:27.320Z,98935.33
2018-01-16T22:26:58.845Z,98952.30
2018-01-16T22:29:29.895Z,98949.39
2018-01-16T22:32:01.998Z,98957.19
2018-01-16T22:34:32.455Z,98939.39
2018-01-16T22:37:02.817Z,98903.81
2018-01-16T22:39:33.786Z,98942.59
2018-01-16T22:42:04.112Z,98938.78
2018-01-16T22:44:35.629Z,98932.76
2018-01-16T22:47:06.561Z,98925.62
2018-01-16T22:49:37.679Z,98930.84
2018-01-16T22:52:10.117Z,98934.53
2018-01-16T22:54:41.121Z,98925.13
2018-01-16T22:57:11.491Z,98914.75
2018-01-16T22:59:42.540Z,98921.56
2018-01-16T23:02:13.418Z,98933.36
2018-01-16T23:05:00.663Z,98935.02
2018-01-16T23:07:30.927Z,98929.63
2018-01-16T23:10:03.712Z,98923.88
2018-01-16T23:12:36.444Z,98927.80
2018-01-16T23:17:49.676Z,98898.53
2018-01-16T23:20:20.765Z,98904.86
2018-01-16T23:22:53.256Z,98896.77
2018-01-16T23:25:24.631Z,98898.72
2018-01-16T23:27:55.459Z,98898.23
2018-01-16T23:30:26.100Z,98883.16
2018-01-16T23:32:56.626Z,98894.63
2018-01-16T23:35:27.427Z,98888.63
2018-01-16T23:37:57.954Z,98886.61
2018-01-16T23:40:29.297Z,98875.20
2018-01-16T23:43:00.284Z,98869.08
2018-01-16T23:45:31.308Z,98864.63
2018-01-16T23:48:01.800Z,98872.56
2018-01-16T23:50:33.712Z,98866.15
2018-01-16T23:53:04.575Z,98856.84
2018-01-16T23:55:35.608Z,98847.30
2018-01-16T23:58:09.581Z,98843.13
